Aviation Digital Data Service (ADDS)

Output produced by METARs form (2307 UTC 23 March 2019)
found at http://www.aviationweather.gov/metar/data/
 
METAR text: UACC 232300Z 00000MPS 0200 R22/0650N FG VV002 01/01 Q1018 R22/1///65 NOSIG RMK QBB080 QFE732/0977
Conditions at: UACC (ASTANA KAZAKHSTA, KZ) observed 2300 UTC 23 March 2019
Temperature: 1.0°C (34°F)
Dewpoint: 1.0°C (34°F) [RH = 100%]
Pressure (altimeter): 30.06 inches Hg (1018.0 mb)
Winds: calm
Visibility: 0.12 miles (0.19 km)
Ceiling: indefinite ceiling with vertical visibility of 200 feet AGL
Clouds: obscured sky
Weather: FG  (fog)

METAR text: UACC 232230Z 17001MPS 0300 R22/0800N FG VV002 01/01 Q1018 R22/1///65 NOSIG RMK QBB080 QFE732/0977
Conditions at: UACC (ASTANA KAZAKHSTA, KZ) observed 2230 UTC 23 March 2019
Temperature: 1.0°C (34°F)
Dewpoint: 1.0°C (34°F) [RH = 100%]
Pressure (altimeter): 30.06 inches Hg (1018.0 mb)
Winds: from the S (170 degrees) at 2 MPH (2 knots; 1.0 m/s)
Visibility: 0.19 miles (0.31 km)
Ceiling: indefinite ceiling with vertical visibility of 200 feet AGL
Clouds: obscured sky
Weather: FG  (fog)

METAR text: UACC 232200Z 15002MPS 130V190 0250 R22/0750D FG VV002 01/01 Q1018 R22/1///65 NOSIG RMK QBB070 QFE732/0977
Conditions at: UACC (ASTANA KAZAKHSTA, KZ) observed 2200 UTC 23 March 2019
Temperature: 1.0°C (34°F)
Dewpoint: 1.0°C (34°F) [RH = 100%]
Pressure (altimeter): 30.06 inches Hg (1018.0 mb)
Winds: from the SSE (150 degrees) at 5 MPH (4 knots; 2.1 m/s)
Visibility: 0.16 miles (0.26 km)
Ceiling: indefinite ceiling with vertical visibility of 200 feet AGL
Clouds: obscured sky
Weather: FG  (fog)

METAR text: UACC 232130Z 14002MPS 0200 R22/0700N FG VV002 01/01 Q1018 R22/1///65 NOSIG RMK QBB070 QFE732/0977
Conditions at: UACC (ASTANA KAZAKHSTA, KZ) observed 2130 UTC 23 March 2019
Temperature: 1.0°C (34°F)
Dewpoint: 1.0°C (34°F) [RH = 100%]
Pressure (altimeter): 30.06 inches Hg (1018.0 mb)
Winds: from the SE (140 degrees) at 5 MPH (4 knots; 2.1 m/s)
Visibility: 0.12 miles (0.19 km)
Ceiling: indefinite ceiling with vertical visibility of 200 feet AGL
Clouds: obscured sky
Weather: FG  (fog)

METAR text: UACC 232100Z 23002MPS 0600 R22/1900N PRFG OVC002 01/01 Q1018 R22/1///65 NOSIG RMK QBB060 QFE732/0977
Conditions at: UACC (ASTANA KAZAKHSTA, KZ) observed 2100 UTC 23 March 2019
Temperature: 1.0°C (34°F)
Dewpoint: 1.0°C (34°F) [RH = 100%]
Pressure (altimeter): 30.06 inches Hg (1018.0 mb)
Winds: from the SW (230 degrees) at 5 MPH (4 knots; 2.1 m/s)
Visibility: 0.37 miles (0.60 km)
Ceiling: 200 feet AGL
Clouds: overcast cloud deck at 200 feet AGL
Weather: PRFG  (partial fog)

METAR text: UACC 232030Z 22002MPS 3700 BR OVC003 01/01 Q1018 R22/1///65 NOSIG RMK QBB100 QFE732/0977
Conditions at: UACC (ASTANA KAZAKHSTA, KZ) observed 2030 UTC 23 March 2019
Temperature: 1.0°C (34°F)
Dewpoint: 1.0°C (34°F) [RH = 100%]
Pressure (altimeter): 30.06 inches Hg (1018.0 mb)
Winds: from the SW (220 degrees) at 5 MPH (4 knots; 2.1 m/s)
Visibility: 2.30 miles (3.70 km)
Ceiling: 300 feet AGL
Clouds: overcast cloud deck at 300 feet AGL
Weather: BR  (mist)

METAR text: UACC 232000Z VRB01MPS 8000 BKN006 OVC026 01/01 Q1018 R22/1///65 NOSIG RMK QBB190 QFE732/0977
Conditions at: UACC (ASTANA KAZAKHSTA, KZ) observed 2000 UTC 23 March 2019
Temperature: 1.0°C (34°F)
Dewpoint: 1.0°C (34°F) [RH = 100%]
Pressure (altimeter): 30.06 inches Hg (1018.0 mb)
Winds: variable direction winds at 2 MPH (2 knots; 1.0 m/s)
Visibility: 5 miles ( 8 km)
Ceiling: 600 feet AGL
Clouds: broken clouds at 600 feet AGL
overcast cloud deck at 2600 feet AGL
Weather: no significant weather observed at this time

METAR text: UACC 231930Z 20001MPS 9000 BKN007 OVC026 01/00 Q1018 R22/1///65 NOSIG RMK QFE732/0977
Conditions at: UACC (ASTANA KAZAKHSTA, KZ) observed 1930 UTC 23 March 2019
Temperature: 1.0°C (34°F)
Dewpoint: 0.0°C (32°F) [RH = 93%]
Pressure (altimeter): 30.06 inches Hg (1018.0 mb)
Winds: from the SSW (200 degrees) at 2 MPH (2 knots; 1.0 m/s)
Visibility: 6 miles ( 9 km)
Ceiling: 700 feet AGL
Clouds: broken clouds at 700 feet AGL
overcast cloud deck at 2600 feet AGL
Weather: no significant weather observed at this time

METAR text: UACC 231900Z 16002MPS 9999 BKN006 OVC026 01/00 Q1018 R22/1///65 NOSIG RMK QBB200 QFE732/0977
Conditions at: UACC (ASTANA KAZAKHSTA, KZ) observed 1900 UTC 23 March 2019
Temperature: 1.0°C (34°F)
Dewpoint: 0.0°C (32°F) [RH = 93%]
Pressure (altimeter): 30.06 inches Hg (1018.0 mb)
Winds: from the SSE (160 degrees) at 5 MPH (4 knots; 2.1 m/s)
Visibility: 6 or more miles (10+ km)
Ceiling: 600 feet AGL
Clouds: broken clouds at 600 feet AGL
overcast cloud deck at 2600 feet AGL
Weather: no significant weather observed at this time

METAR text: UACC 231830Z 17002MPS 9999 BKN006 OVC026 01/00 Q1019 R22/1///65 NOSIG RMK QBB190 QFE732/0977
Conditions at: UACC (ASTANA KAZAKHSTA, KZ) observed 1830 UTC 23 March 2019
Temperature: 1.0°C (34°F)
Dewpoint: 0.0°C (32°F) [RH = 93%]
Pressure (altimeter): 30.09 inches Hg (1019.0 mb)
Winds: from the S (170 degrees) at 5 MPH (4 knots; 2.1 m/s)
Visibility: 6 or more miles (10+ km)
Ceiling: 600 feet AGL
Clouds: broken clouds at 600 feet AGL
overcast cloud deck at 2600 feet AGL
Weather: no significant weather observed at this time

METAR text: UACC 231800Z 00000MPS 9999 BKN006 OVC026 01/00 Q1019 R22/1///65 NOSIG RMK QBB190 QFE732/0977
Conditions at: UACC (ASTANA KAZAKHSTA, KZ) observed 1800 UTC 23 March 2019
Temperature: 1.0°C (34°F)
Dewpoint: 0.0°C (32°F) [RH = 93%]
Pressure (altimeter): 30.09 inches Hg (1019.0 mb)
Winds: calm
Visibility: 6 or more miles (10+ km)
Ceiling: 600 feet AGL
Clouds: broken clouds at 600 feet AGL
overcast cloud deck at 2600 feet AGL
Weather: no significant weather observed at this time

METAR text: UACC 231730Z 17001MPS 9999 BKN006 OVC026 01/00 Q1019 R22/1///65 NOSIG RMK QBB190 QFE733/0977
Conditions at: UACC (ASTANA KAZAKHSTA, KZ) observed 1730 UTC 23 March 2019
Temperature: 1.0°C (34°F)
Dewpoint: 0.0°C (32°F) [RH = 93%]
Pressure (altimeter): 30.09 inches Hg (1019.0 mb)
Winds: from the S (170 degrees) at 2 MPH (2 knots; 1.0 m/s)
Visibility: 6 or more miles (10+ km)
Ceiling: 600 feet AGL
Clouds: broken clouds at 600 feet AGL
overcast cloud deck at 2600 feet AGL
Weather: no significant weather observed at this time

METAR text: UACC 231700Z 12001MPS 4400 BR BKN006 OVC026 01/01 Q1019 R22/1///65 NOSIG RMK QBB190 QFE733/0977
Conditions at: UACC (ASTANA KAZAKHSTA, KZ) observed 1700 UTC 23 March 2019
Temperature: 1.0°C (34°F)
Dewpoint: 1.0°C (34°F) [RH = 100%]
Pressure (altimeter): 30.09 inches Hg (1019.0 mb)
Winds: from the ESE (120 degrees) at 2 MPH (2 knots; 1.0 m/s)
Visibility: 2.73 miles (4.39 km)
Ceiling: 600 feet AGL
Clouds: broken clouds at 600 feet AGL
overcast cloud deck at 2600 feet AGL
Weather: BR  (mist)

METAR text: UACC 231630Z 00000MPS 4400 BR BKN006 OVC026 01/01 Q1019 R22/1///65 NOSIG RMK QBB190 QFE733/0977
Conditions at: UACC (ASTANA KAZAKHSTA, KZ) observed 1630 UTC 23 March 2019
Temperature: 1.0°C (34°F)
Dewpoint: 1.0°C (34°F) [RH = 100%]
Pressure (altimeter): 30.09 inches Hg (1019.0 mb)
Winds: calm
Visibility: 2.73 miles (4.39 km)
Ceiling: 600 feet AGL
Clouds: broken clouds at 600 feet AGL
overcast cloud deck at 2600 feet AGL
Weather: BR  (mist)

METAR text: UACC 231600Z 21002MPS 7000 BKN006 OVC026 01/01 Q1019 R22/1///65 NOSIG RMK QBB180 QFE732/0977
Conditions at: UACC (ASTANA KAZAKHSTA, KZ) observed 1600 UTC 23 March 2019
Temperature: 1.0°C (34°F)
Dewpoint: 1.0°C (34°F) [RH = 100%]
Pressure (altimeter): 30.09 inches Hg (1019.0 mb)
Winds: from the SSW (210 degrees) at 5 MPH (4 knots; 2.1 m/s)
Visibility: 4 miles ( 7 km)
Ceiling: 600 feet AGL
Clouds: broken clouds at 600 feet AGL
overcast cloud deck at 2600 feet AGL
Weather: no significant weather observed at this time

METAR text: UACC 231530Z 20002MPS 8000 BKN005 OVC026 01/01 Q1018 R22/1///65 NOSIG RMK QBB170 QFE732/0977
Conditions at: UACC (ASTANA KAZAKHSTA, KZ) observed 1530 UTC 23 March 2019
Temperature: 1.0°C (34°F)
Dewpoint: 1.0°C (34°F) [RH = 100%]
Pressure (altimeter): 30.06 inches Hg (1018.0 mb)
Winds: from the SSW (200 degrees) at 5 MPH (4 knots; 2.1 m/s)
Visibility: 5 miles ( 8 km)
Ceiling: 500 feet AGL
Clouds: broken clouds at 500 feet AGL
overcast cloud deck at 2600 feet AGL
Weather: no significant weather observed at this time

METAR text: UACC 231500Z 21004MPS 6000 OVC007 02/01 Q1019 R22/1///65 NOSIG RMK QFE732/0977
Conditions at: UACC (ASTANA KAZAKHSTA, KZ) observed 1500 UTC 23 March 2019
Temperature: 2.0°C (36°F)
Dewpoint: 1.0°C (34°F) [RH = 93%]
Pressure (altimeter): 30.09 inches Hg (1019.0 mb)
Winds: from the SSW (210 degrees) at 9 MPH (8 knots; 4.1 m/s)
Visibility: 4 miles ( 6 km)
Ceiling: 700 feet AGL
Clouds: overcast cloud deck at 700 feet AGL
Weather: no significant weather observed at this time

METAR text: UACC 231430Z 20003MPS 8000 OVC003 02/01 Q1019 R22/0///70 NOSIG RMK QBB110 QFE732/0977
Conditions at: UACC (ASTANA KAZAKHSTA, KZ) observed 1430 UTC 23 March 2019
Temperature: 2.0°C (36°F)
Dewpoint: 1.0°C (34°F) [RH = 93%]
Pressure (altimeter): 30.09 inches Hg (1019.0 mb)
Winds: from the SSW (200 degrees) at 7 MPH (6 knots; 3.1 m/s)
Visibility: 5 miles ( 8 km)
Ceiling: 300 feet AGL
Clouds: overcast cloud deck at 300 feet AGL
Weather: no significant weather observed at this time

METAR text: UACC 231400Z 21003MPS 8000 OVC003 02/01 Q1018 R22/0///70 NOSIG RMK QBB110 QFE732/0977
Conditions at: UACC (ASTANA KAZAKHSTA, KZ) observed 1400 UTC 23 March 2019
Temperature: 2.0°C (36°F)
Dewpoint: 1.0°C (34°F) [RH = 93%]
Pressure (altimeter): 30.06 inches Hg (1018.0 mb)
Winds: from the SSW (210 degrees) at 7 MPH (6 knots; 3.1 m/s)
Visibility: 5 miles ( 8 km)
Ceiling: 300 feet AGL
Clouds: overcast cloud deck at 300 feet AGL
Weather: no significant weather observed at this time

METAR text: UACC 231330Z 19002MPS 9999 OVC005 02/01 Q1018 R22/0///70 NOSIG RMK QBB150 QFE732/0977
Conditions at: UACC (ASTANA KAZAKHSTA, KZ) observed 1330 UTC 23 March 2019
Temperature: 2.0°C (36°F)
Dewpoint: 1.0°C (34°F) [RH = 93%]
Pressure (altimeter): 30.06 inches Hg (1018.0 mb)
Winds: from the S (190 degrees) at 5 MPH (4 knots; 2.1 m/s)
Visibility: 6 or more miles (10+ km)
Ceiling: 500 feet AGL
Clouds: overcast cloud deck at 500 feet AGL
Weather: no significant weather observed at this time

METAR text: UACC 231300Z 19002MPS 9999 OVC005 02/01 Q1018 R22/0///70 NOSIG RMK QBB170 QFE732/0977
Conditions at: UACC (ASTANA KAZAKHSTA, KZ) observed 1300 UTC 23 March 2019
Temperature: 2.0°C (36°F)
Dewpoint: 1.0°C (34°F) [RH = 93%]
Pressure (altimeter): 30.06 inches Hg (1018.0 mb)
Winds: from the S (190 degrees) at 5 MPH (4 knots; 2.1 m/s)
Visibility: 6 or more miles (10+ km)
Ceiling: 500 feet AGL
Clouds: overcast cloud deck at 500 feet AGL
Weather: no significant weather observed at this time

METAR text: UACC 231230Z 19003MPS 9999 OVC007 02/00 Q1018 R22/0///70 NOSIG RMK QFE732/0976
Conditions at: UACC (ASTANA KAZAKHSTA, KZ) observed 1230 UTC 23 March 2019
Temperature: 2.0°C (36°F)
Dewpoint: 0.0°C (32°F) [RH = 87%]
Pressure (altimeter): 30.06 inches Hg (1018.0 mb)
Winds: from the S (190 degrees) at 7 MPH (6 knots; 3.1 m/s)
Visibility: 6 or more miles (10+ km)
Ceiling: 700 feet AGL
Clouds: overcast cloud deck at 700 feet AGL
Weather: no significant weather observed at this time

METAR text: UACC 231200Z 19003MPS 9999 OVC008 02/01 Q1018 R22/0///70 NOSIG RMK QFE732/0976
Conditions at: UACC (ASTANA KAZAKHSTA, KZ) observed 1200 UTC 23 March 2019
Temperature: 2.0°C (36°F)
Dewpoint: 1.0°C (34°F) [RH = 93%]
Pressure (altimeter): 30.06 inches Hg (1018.0 mb)
Winds: from the S (190 degrees) at 7 MPH (6 knots; 3.1 m/s)
Visibility: 6 or more miles (10+ km)
Ceiling: 800 feet AGL
Clouds: overcast cloud deck at 800 feet AGL
Weather: no significant weather observed at this time

METAR text: UACC 231130Z 19004MPS 9999 SCT009 BKN063 03/00 Q1018 R22/0///70 NOSIG RMK QFE732/0976
Conditions at: UACC (ASTANA KAZAKHSTA, KZ) observed 1130 UTC 23 March 2019
Temperature: 3.0°C (37°F)
Dewpoint: 0.0°C (32°F) [RH = 81%]
Pressure (altimeter): 30.06 inches Hg (1018.0 mb)
Winds: from the S (190 degrees) at 9 MPH (8 knots; 4.1 m/s)
Visibility: 6 or more miles (10+ km)
Ceiling: 6300 feet AGL
Clouds: scattered clouds at 900 feet AGL
broken clouds at 6300 feet AGL
Weather: no significant weather observed at this time

METAR text: UACC 231100Z 19004MPS 9999 FEW009 BKN063 03/01 Q1018 R22/0///70 NOSIG RMK QFE732/0976
Conditions at: UACC (ASTANA KAZAKHSTA, KZ) observed 1100 UTC 23 March 2019
Temperature: 3.0°C (37°F)
Dewpoint: 1.0°C (34°F) [RH = 87%]
Pressure (altimeter): 30.06 inches Hg (1018.0 mb)
Winds: from the S (190 degrees) at 9 MPH (8 knots; 4.1 m/s)
Visibility: 6 or more miles (10+ km)
Ceiling: 6300 feet AGL
Clouds: few clouds at 900 feet AGL
broken clouds at 6300 feet AGL
Weather: no significant weather observed at this time

METAR text: UACC 231030Z 18003MPS CAVOK 03/01 Q1018 R22/0///70 NOSIG RMK QFE732/0976
Conditions at: UACC (ASTANA KAZAKHSTA, KZ) observed 1030 UTC 23 March 2019
Temperature: 3.0°C (37°F)
Dewpoint: 1.0°C (34°F) [RH = 87%]
Pressure (altimeter): 30.06 inches Hg (1018.0 mb)
Winds: from the S (180 degrees) at 7 MPH (6 knots; 3.1 m/s)
Visibility: 6 or more miles (10+ km)
Ceiling: ceiling and visibility are OK
Clouds: unknown
Weather: no significant weather observed at this time

METAR text: UACC 231000Z 19003MPS CAVOK 03/00 Q1018 R22/0///70 NOSIG RMK QFE732/0976
Conditions at: UACC (ASTANA KAZAKHSTA, KZ) observed 1000 UTC 23 March 2019
Temperature: 3.0°C (37°F)
Dewpoint: 0.0°C (32°F) [RH = 81%]
Pressure (altimeter): 30.06 inches Hg (1018.0 mb)
Winds: from the S (190 degrees) at 7 MPH (6 knots; 3.1 m/s)
Visibility: 6 or more miles (10+ km)
Ceiling: ceiling and visibility are OK
Clouds: unknown
Weather: no significant weather observed at this time

METAR text: UACC 230930Z 17003MPS 9999 FEW010 BKN096 03/00 Q1018 R22/0///70 NOSIG RMK QFE732/0976
Conditions at: UACC (ASTANA KAZAKHSTA, KZ) observed 0930 UTC 23 March 2019
Temperature: 3.0°C (37°F)
Dewpoint: 0.0°C (32°F) [RH = 81%]
Pressure (altimeter): 30.06 inches Hg (1018.0 mb)
Winds: from the S (170 degrees) at 7 MPH (6 knots; 3.1 m/s)
Visibility: 6 or more miles (10+ km)
Ceiling: 9600 feet AGL
Clouds: few clouds at 1000 feet AGL
broken clouds at 9600 feet AGL
Weather: no significant weather observed at this time

METAR text: UACC 230900Z 17004MPS 9999 FEW010 SCT090 03/00 Q1018 R22/0///70 NOSIG RMK QFE732/0976
Conditions at: UACC (ASTANA KAZAKHSTA, KZ) observed 0900 UTC 23 March 2019
Temperature: 3.0°C (37°F)
Dewpoint: 0.0°C (32°F) [RH = 81%]
Pressure (altimeter): 30.06 inches Hg (1018.0 mb)
Winds: from the S (170 degrees) at 9 MPH (8 knots; 4.1 m/s)
Visibility: 6 or more miles (10+ km)
Ceiling: at least 12,000 feet AGL
Clouds: few clouds at 1000 feet AGL
scattered clouds at 9000 feet AGL
Weather: no significant weather observed at this time

METAR text: UACC 230830Z 17004MPS 9999 SCT009 04/00 Q1018 R22/0///70 NOSIG RMK QFE732/0976
Conditions at: UACC (ASTANA KAZAKHSTA, KZ) observed 0830 UTC 23 March 2019
Temperature: 4.0°C (39°F)
Dewpoint: 0.0°C (32°F) [RH = 75%]
Pressure (altimeter): 30.06 inches Hg (1018.0 mb)
Winds: from the S (170 degrees) at 9 MPH (8 knots; 4.1 m/s)
Visibility: 6 or more miles (10+ km)
Ceiling: at least 12,000 feet AGL
Clouds: scattered clouds at 900 feet AGL
Weather: no significant weather observed at this time

METAR text: UACC 230800Z 17004MPS 9999 BKN008 04/00 Q1018 R22/0///70 NOSIG RMK QFE732/0976
Conditions at: UACC (ASTANA KAZAKHSTA, KZ) observed 0800 UTC 23 March 2019
Temperature: 4.0°C (39°F)
Dewpoint: 0.0°C (32°F) [RH = 75%]
Pressure (altimeter): 30.06 inches Hg (1018.0 mb)
Winds: from the S (170 degrees) at 9 MPH (8 knots; 4.1 m/s)
Visibility: 6 or more miles (10+ km)
Ceiling: 800 feet AGL
Clouds: broken clouds at 800 feet AGL
Weather: no significant weather observed at this time

METAR text: UACC 230730Z 15003MPS 9999 BKN009 02/00 Q1018 R22/0///70 NOSIG RMK QFE732/0976
Conditions at: UACC (ASTANA KAZAKHSTA, KZ) observed 0730 UTC 23 March 2019
Temperature: 2.0°C (36°F)
Dewpoint: 0.0°C (32°F) [RH = 87%]
Pressure (altimeter): 30.06 inches Hg (1018.0 mb)
Winds: from the SSE (150 degrees) at 7 MPH (6 knots; 3.1 m/s)
Visibility: 6 or more miles (10+ km)
Ceiling: 900 feet AGL
Clouds: broken clouds at 900 feet AGL
Weather: no significant weather observed at this time

METAR text: UACC 230700Z 16003MPS 9999 BKN008 02/M00 Q1018 R22/0///70 NOSIG RMK QFE732/0976
Conditions at: UACC (ASTANA KAZAKHSTA, KZ) observed 0700 UTC 23 March 2019
Temperature: 2.0°C (36°F)
Dewpoint: 0.0°C (32°F) [RH = 87%]
Pressure (altimeter): 30.06 inches Hg (1018.0 mb)
Winds: from the SSE (160 degrees) at 7 MPH (6 knots; 3.1 m/s)
Visibility: 6 or more miles (10+ km)
Ceiling: 800 feet AGL
Clouds: broken clouds at 800 feet AGL
Weather: no significant weather observed at this time

METAR text: UACC 230630Z 15003MPS 9999 BKN008 02/M00 Q1018 R22/0///70 NOSIG RMK QFE732/0976
Conditions at: UACC (ASTANA KAZAKHSTA, KZ) observed 0630 UTC 23 March 2019
Temperature: 2.0°C (36°F)
Dewpoint: 0.0°C (32°F) [RH = 87%]
Pressure (altimeter): 30.06 inches Hg (1018.0 mb)
Winds: from the SSE (150 degrees) at 7 MPH (6 knots; 3.1 m/s)
Visibility: 6 or more miles (10+ km)
Ceiling: 800 feet AGL
Clouds: broken clouds at 800 feet AGL
Weather: no significant weather observed at this time

METAR text: UACC 230600Z 17002MPS 9999 BKN005 03/M00 Q1018 R22/0///70 NOSIG RMK QBB150 QFE732/0976
Conditions at: UACC (ASTANA KAZAKHSTA, KZ) observed 0600 UTC 23 March 2019
Temperature: 3.0°C (37°F)
Dewpoint: 0.0°C (32°F) [RH = 81%]
Pressure (altimeter): 30.06 inches Hg (1018.0 mb)
Winds: from the S (170 degrees) at 5 MPH (4 knots; 2.1 m/s)
Visibility: 6 or more miles (10+ km)
Ceiling: 500 feet AGL
Clouds: broken clouds at 500 feet AGL
Weather: no significant weather observed at this time

METAR text: UACC 230530Z 21003MPS 9999 OVC005 01/M01 Q1018 R22/0///70 TEMPO BKN003 RMK QBB170 QFE732/0976
Conditions at: UACC (ASTANA KAZAKHSTA, KZ) observed 0530 UTC 23 March 2019
Temperature: 1.0°C (34°F)
Dewpoint: -1.0°C (30°F) [RH = 86%]
Pressure (altimeter): 30.06 inches Hg (1018.0 mb)
Winds: from the SSW (210 degrees) at 7 MPH (6 knots; 3.1 m/s)
Visibility: 6 or more miles (10+ km)
Ceiling: 500 feet AGL
Clouds: overcast cloud deck at 500 feet AGL
Weather: no significant weather observed at this time

METAR text: UACC 230500Z 20004MPS 9999 -DZ OVC004 01/M01 Q1018 R22/0///70 TEMPO BKN003 RMK QBB140 QFE732/0976
Conditions at: UACC (ASTANA KAZAKHSTA, KZ) observed 0500 UTC 23 March 2019
Temperature: 1.0°C (34°F)
Dewpoint: -1.0°C (30°F) [RH = 86%]
Pressure (altimeter): 30.06 inches Hg (1018.0 mb)
Winds: from the SSW (200 degrees) at 9 MPH (8 knots; 4.1 m/s)
Visibility: 6 or more miles (10+ km)
Ceiling: 400 feet AGL
Clouds: overcast cloud deck at 400 feet AGL
Weather: -DZ  (light drizzle)

METAR text: UACC 230430Z 17002MPS 9999 BKN004 M00/M02 Q1018 R22/0///70 TEMPO BKN003 RMK QBB120 QFE732/0976
Conditions at: UACC (ASTANA KAZAKHSTA, KZ) observed 0430 UTC 23 March 2019
Temperature: 0.0°C (32°F)
Dewpoint: -2.0°C (28°F) [RH = 86%]
Pressure (altimeter): 30.06 inches Hg (1018.0 mb)
Winds: from the S (170 degrees) at 5 MPH (4 knots; 2.1 m/s)
Visibility: 6 or more miles (10+ km)
Ceiling: 400 feet AGL
Clouds: broken clouds at 400 feet AGL
Weather: no significant weather observed at this time

METAR text: UACC 230400Z 17002MPS 9999 BKN006 M01/M03 Q1018 R22/0///70 TEMPO SCT004 RMK QBB200 QFE732/0976
Conditions at: UACC (ASTANA KAZAKHSTA, KZ) observed 0400 UTC 23 March 2019
Temperature: -1.0°C (30°F)
Dewpoint: -3.0°C (27°F) [RH = 86%]
Pressure (altimeter): 30.06 inches Hg (1018.0 mb)
Winds: from the S (170 degrees) at 5 MPH (4 knots; 2.1 m/s)
Visibility: 6 or more miles (10+ km)
Ceiling: 600 feet AGL
Clouds: broken clouds at 600 feet AGL
Weather: no significant weather observed at this time

METAR text: UACC 230330Z 19003MPS CAVOK M02/M04 Q1018 R22/0///70 NOSIG RMK QFE732/0976
Conditions at: UACC (ASTANA KAZAKHSTA, KZ) observed 0330 UTC 23 March 2019
Temperature: -2.0°C (28°F)
Dewpoint: -4.0°C (25°F) [RH = 86%]
Pressure (altimeter): 30.06 inches Hg (1018.0 mb)
Winds: from the S (190 degrees) at 7 MPH (6 knots; 3.1 m/s)
Visibility: 6 or more miles (10+ km)
Ceiling: ceiling and visibility are OK
Clouds: unknown
Weather: no significant weather observed at this time

METAR text: UACC 230300Z 18003MPS CAVOK M03/M04 Q1018 R22/0///70 NOSIG RMK QFE732/0976
Conditions at: UACC (ASTANA KAZAKHSTA, KZ) observed 0300 UTC 23 March 2019
Temperature: -3.0°C (27°F)
Dewpoint: -4.0°C (25°F) [RH = 93%]
Pressure (altimeter): 30.06 inches Hg (1018.0 mb)
Winds: from the S (180 degrees) at 7 MPH (6 knots; 3.1 m/s)
Visibility: 6 or more miles (10+ km)
Ceiling: ceiling and visibility are OK
Clouds: unknown
Weather: no significant weather observed at this time

METAR text: UACC 230230Z 00000MPS 9000 NSC M04/M05 Q1018 R22/0///70 NOSIG RMK QFE732/0976
Conditions at: UACC (ASTANA KAZAKHSTA, KZ) observed 0230 UTC 23 March 2019
Temperature: -4.0°C (25°F)
Dewpoint: -5.0°C (23°F) [RH = 93%]
Pressure (altimeter): 30.06 inches Hg (1018.0 mb)
Winds: calm
Visibility: 6 miles ( 9 km)
Ceiling: at least 12,000 feet AGL
Clouds: sky clear below 12,000 feet AGL
Weather: no significant weather observed at this time

METAR text: UACC 230200Z VRB01MPS CAVOK M06/M07 Q1018 R22/0///70 NOSIG RMK QFE732/0976
Conditions at: UACC (ASTANA KAZAKHSTA, KZ) observed 0200 UTC 23 March 2019
Temperature: -6.0°C (21°F)
Dewpoint: -7.0°C (19°F) [RH = 93%]
Pressure (altimeter): 30.06 inches Hg (1018.0 mb)
Winds: variable direction winds at 2 MPH (2 knots; 1.0 m/s)
Visibility: 6 or more miles (10+ km)
Ceiling: ceiling and visibility are OK
Clouds: unknown
Weather: no significant weather observed at this time

METAR text: UACC 230130Z 19002MPS CAVOK M06/M06 Q1018 R22/0///70 NOSIG RMK QFE732/0976
Conditions at: UACC (ASTANA KAZAKHSTA, KZ) observed 0130 UTC 23 March 2019
Temperature: -6.0°C (21°F)
Dewpoint: -6.0°C (21°F) [RH = 100%]
Pressure (altimeter): 30.06 inches Hg (1018.0 mb)
Winds: from the S (190 degrees) at 5 MPH (4 knots; 2.1 m/s)
Visibility: 6 or more miles (10+ km)
Ceiling: ceiling and visibility are OK
Clouds: unknown
Weather: no significant weather observed at this time

METAR text: UACC 230100Z 19003MPS CAVOK M06/M07 Q1017 R22/0///70 NOSIG RMK QFE732/0976
Conditions at: UACC (ASTANA KAZAKHSTA, KZ) observed 0100 UTC 23 March 2019
Temperature: -6.0°C (21°F)
Dewpoint: -7.0°C (19°F) [RH = 93%]
Pressure (altimeter): 30.03 inches Hg (1017.0 mb)
Winds: from the S (190 degrees) at 7 MPH (6 knots; 3.1 m/s)
Visibility: 6 or more miles (10+ km)
Ceiling: ceiling and visibility are OK
Clouds: unknown
Weather: no significant weather observed at this time

METAR text: UACC 230030Z 20001MPS CAVOK M06/M06 Q1017 R22/0///70 NOSIG RMK QFE732/0976
Conditions at: UACC (ASTANA KAZAKHSTA, KZ) observed 0030 UTC 23 March 2019
Temperature: -6.0°C (21°F)
Dewpoint: -6.0°C (21°F) [RH = 100%]
Pressure (altimeter): 30.03 inches Hg (1017.0 mb)
Winds: from the SSW (200 degrees) at 2 MPH (2 knots; 1.0 m/s)
Visibility: 6 or more miles (10+ km)
Ceiling: ceiling and visibility are OK
Clouds: unknown
Weather: no significant weather observed at this time

METAR text: UACC 230000Z 19003MPS CAVOK M05/M06 Q1017 R22/0///70 NOSIG RMK QFE732/0976
Conditions at: UACC (ASTANA KAZAKHSTA, KZ) observed 0000 UTC 23 March 2019
Temperature: -5.0°C (23°F)
Dewpoint: -6.0°C (21°F) [RH = 93%]
Pressure (altimeter): 30.03 inches Hg (1017.0 mb)
Winds: from the S (190 degrees) at 7 MPH (6 knots; 3.1 m/s)
Visibility: 6 or more miles (10+ km)
Ceiling: ceiling and visibility are OK
Clouds: unknown
Weather: no significant weather observed at this time

METAR text: UACC 222330Z 20002MPS CAVOK M05/M05 Q1017 R22/0///70 NOSIG RMK QFE732/0976
Conditions at: UACC (ASTANA KAZAKHSTA, KZ) observed 2330 UTC 22 March 2019
Temperature: -5.0°C (23°F)
Dewpoint: -5.0°C (23°F) [RH = 100%]
Pressure (altimeter): 30.03 inches Hg (1017.0 mb)
Winds: from the SSW (200 degrees) at 5 MPH (4 knots; 2.1 m/s)
Visibility: 6 or more miles (10+ km)
Ceiling: ceiling and visibility are OK
Clouds: unknown
Weather: no significant weather observed at this time

METAR text: UACC 222300Z 19002MPS CAVOK M05/M05 Q1017 R22/0///70 NOSIG RMK QFE732/0976
Conditions at: UACC (ASTANA KAZAKHSTA, KZ) observed 2300 UTC 22 March 2019
Temperature: -5.0°C (23°F)
Dewpoint: -5.0°C (23°F) [RH = 100%]
Pressure (altimeter): 30.03 inches Hg (1017.0 mb)
Winds: from the S (190 degrees) at 5 MPH (4 knots; 2.1 m/s)
Visibility: 6 or more miles (10+ km)
Ceiling: ceiling and visibility are OK
Clouds: unknown
Weather: no significant weather observed at this time

METAR text: UACC 222230Z 19002MPS 160V220 8000 NSC M04/M05 Q1017 R22/0///70 NOSIG RMK QFE732/0976
Conditions at: UACC (ASTANA KAZAKHSTA, KZ) observed 2230 UTC 22 March 2019
Temperature: -4.0°C (25°F)
Dewpoint: -5.0°C (23°F) [RH = 93%]
Pressure (altimeter): 30.03 inches Hg (1017.0 mb)
Winds: from the S (190 degrees) at 5 MPH (4 knots; 2.1 m/s)
Visibility: 5 miles ( 8 km)
Ceiling: at least 12,000 feet AGL
Clouds: sky clear below 12,000 feet AGL
Weather: no significant weather observed at this time

METAR text: UACC 222200Z 20002MPS 9000 NSC M04/M05 Q1017 R22/0///70 NOSIG RMK QFE732/0976
Conditions at: UACC (ASTANA KAZAKHSTA, KZ) observed 2200 UTC 22 March 2019
Temperature: -4.0°C (25°F)
Dewpoint: -5.0°C (23°F) [RH = 93%]
Pressure (altimeter): 30.03 inches Hg (1017.0 mb)
Winds: from the SSW (200 degrees) at 5 MPH (4 knots; 2.1 m/s)
Visibility: 6 miles ( 9 km)
Ceiling: at least 12,000 feet AGL
Clouds: sky clear below 12,000 feet AGL
Weather: no significant weather observed at this time

METAR text: UACC 222130Z 21003MPS CAVOK M04/M05 Q1018 R22/0///70 NOSIG RMK QFE732/0976
Conditions at: UACC (ASTANA KAZAKHSTA, KZ) observed 2130 UTC 22 March 2019
Temperature: -4.0°C (25°F)
Dewpoint: -5.0°C (23°F) [RH = 93%]
Pressure (altimeter): 30.06 inches Hg (1018.0 mb)
Winds: from the SSW (210 degrees) at 7 MPH (6 knots; 3.1 m/s)
Visibility: 6 or more miles (10+ km)
Ceiling: ceiling and visibility are OK
Clouds: unknown
Weather: no significant weather observed at this time

METAR text: UACC 222100Z 20002MPS CAVOK M05/M06 Q1017 R22/0///70 NOSIG RMK QFE732/0976
Conditions at: UACC (ASTANA KAZAKHSTA, KZ) observed 2100 UTC 22 March 2019
Temperature: -5.0°C (23°F)
Dewpoint: -6.0°C (21°F) [RH = 93%]
Pressure (altimeter): 30.03 inches Hg (1017.0 mb)
Winds: from the SSW (200 degrees) at 5 MPH (4 knots; 2.1 m/s)
Visibility: 6 or more miles (10+ km)
Ceiling: ceiling and visibility are OK
Clouds: unknown
Weather: no significant weather observed at this time

METAR text: UACC 222030Z 18002MPS 160V220 9999 SCT/// M05/M06 Q1018 R22/0///70 NOSIG RMK QFE732/0976
Conditions at: UACC (ASTANA KAZAKHSTA, KZ) observed 2030 UTC 22 March 2019
Temperature: -5.0°C (23°F)
Dewpoint: -6.0°C (21°F) [RH = 93%]
Pressure (altimeter): 30.06 inches Hg (1018.0 mb)
Winds: from the S (180 degrees) at 5 MPH (4 knots; 2.1 m/s)
Visibility: 6 or more miles (10+ km)
Ceiling: unknown
Clouds: missing
Weather: no significant weather observed at this time

METAR text: UACC 222000Z 19002MPS CAVOK M05/M05 Q1018 R22/0///70 NOSIG RMK QFE732/0976
Conditions at: UACC (ASTANA KAZAKHSTA, KZ) observed 2000 UTC 22 March 2019
Temperature: -5.0°C (23°F)
Dewpoint: -5.0°C (23°F) [RH = 100%]
Pressure (altimeter): 30.06 inches Hg (1018.0 mb)
Winds: from the S (190 degrees) at 5 MPH (4 knots; 2.1 m/s)
Visibility: 6 or more miles (10+ km)
Ceiling: ceiling and visibility are OK
Clouds: unknown
Weather: no significant weather observed at this time

METAR text: UACC 221930Z 18003MPS CAVOK M05/M05 Q1018 R22/0///70 NOSIG RMK QFE732/0976
Conditions at: UACC (ASTANA KAZAKHSTA, KZ) observed 1930 UTC 22 March 2019
Temperature: -5.0°C (23°F)
Dewpoint: -5.0°C (23°F) [RH = 100%]
Pressure (altimeter): 30.06 inches Hg (1018.0 mb)
Winds: from the S (180 degrees) at 7 MPH (6 knots; 3.1 m/s)
Visibility: 6 or more miles (10+ km)
Ceiling: ceiling and visibility are OK
Clouds: unknown
Weather: no significant weather observed at this time

METAR text: UACC 221900Z 19002MPS CAVOK M04/M05 Q1018 R22/0///70 NOSIG RMK QFE732/0976
Conditions at: UACC (ASTANA KAZAKHSTA, KZ) observed 1900 UTC 22 March 2019
Temperature: -4.0°C (25°F)
Dewpoint: -5.0°C (23°F) [RH = 93%]
Pressure (altimeter): 30.06 inches Hg (1018.0 mb)
Winds: from the S (190 degrees) at 5 MPH (4 knots; 2.1 m/s)
Visibility: 6 or more miles (10+ km)
Ceiling: ceiling and visibility are OK
Clouds: unknown
Weather: no significant weather observed at this time

METAR text: UACC 221830Z 18002MPS CAVOK M04/M05 Q1018 R22/0///70 NOSIG RMK QFE732/0976
Conditions at: UACC (ASTANA KAZAKHSTA, KZ) observed 1830 UTC 22 March 2019
Temperature: -4.0°C (25°F)
Dewpoint: -5.0°C (23°F) [RH = 93%]
Pressure (altimeter): 30.06 inches Hg (1018.0 mb)
Winds: from the S (180 degrees) at 5 MPH (4 knots; 2.1 m/s)
Visibility: 6 or more miles (10+ km)
Ceiling: ceiling and visibility are OK
Clouds: unknown
Weather: no significant weather observed at this time

METAR text: UACC 221800Z 19002MPS CAVOK M04/M04 Q1018 R22/0///70 NOSIG RMK QFE732/0976
Conditions at: UACC (ASTANA KAZAKHSTA, KZ) observed 1800 UTC 22 March 2019
Temperature: -4.0°C (25°F)
Dewpoint: -4.0°C (25°F) [RH = 100%]
Pressure (altimeter): 30.06 inches Hg (1018.0 mb)
Winds: from the S (190 degrees) at 5 MPH (4 knots; 2.1 m/s)
Visibility: 6 or more miles (10+ km)
Ceiling: ceiling and visibility are OK
Clouds: unknown
Weather: no significant weather observed at this time

METAR text: UACC 221730Z 16001MPS CAVOK M04/M05 Q1018 R22/0///70 NOSIG RMK QFE732/0976
Conditions at: UACC (ASTANA KAZAKHSTA, KZ) observed 1730 UTC 22 March 2019
Temperature: -4.0°C (25°F)
Dewpoint: -5.0°C (23°F) [RH = 93%]
Pressure (altimeter): 30.06 inches Hg (1018.0 mb)
Winds: from the SSE (160 degrees) at 2 MPH (2 knots; 1.0 m/s)
Visibility: 6 or more miles (10+ km)
Ceiling: ceiling and visibility are OK
Clouds: unknown
Weather: no significant weather observed at this time

METAR text: UACC 221700Z 18003MPS CAVOK M03/M04 Q1018 R22/0///70 NOSIG RMK QFE732/0977
Conditions at: UACC (ASTANA KAZAKHSTA, KZ) observed 1700 UTC 22 March 2019
Temperature: -3.0°C (27°F)
Dewpoint: -4.0°C (25°F) [RH = 93%]
Pressure (altimeter): 30.06 inches Hg (1018.0 mb)
Winds: from the S (180 degrees) at 7 MPH (6 knots; 3.1 m/s)
Visibility: 6 or more miles (10+ km)
Ceiling: ceiling and visibility are OK
Clouds: unknown
Weather: no significant weather observed at this time

METAR text: UACC 221630Z 18003MPS CAVOK M02/M03 Q1018 R22/0///70 NOSIG RMK QFE732/0977
Conditions at: UACC (ASTANA KAZAKHSTA, KZ) observed 1630 UTC 22 March 2019
Temperature: -2.0°C (28°F)
Dewpoint: -3.0°C (27°F) [RH = 93%]
Pressure (altimeter): 30.06 inches Hg (1018.0 mb)
Winds: from the S (180 degrees) at 7 MPH (6 knots; 3.1 m/s)
Visibility: 6 or more miles (10+ km)
Ceiling: ceiling and visibility are OK
Clouds: unknown
Weather: no significant weather observed at this time

METAR text: UACC 221600Z 19003MPS CAVOK M02/M03 Q1018 R22/0///70 NOSIG RMK QFE732/0977
Conditions at: UACC (ASTANA KAZAKHSTA, KZ) observed 1600 UTC 22 March 2019
Temperature: -2.0°C (28°F)
Dewpoint: -3.0°C (27°F) [RH = 93%]
Pressure (altimeter): 30.06 inches Hg (1018.0 mb)
Winds: from the S (190 degrees) at 7 MPH (6 knots; 3.1 m/s)
Visibility: 6 or more miles (10+ km)
Ceiling: ceiling and visibility are OK
Clouds: unknown
Weather: no significant weather observed at this time

METAR text: UACC 221530Z 18003MPS CAVOK M02/M03 Q1018 R22/0///70 NOSIG RMK QFE732/0977
Conditions at: UACC (ASTANA KAZAKHSTA, KZ) observed 1530 UTC 22 March 2019
Temperature: -2.0°C (28°F)
Dewpoint: -3.0°C (27°F) [RH = 93%]
Pressure (altimeter): 30.06 inches Hg (1018.0 mb)
Winds: from the S (180 degrees) at 7 MPH (6 knots; 3.1 m/s)
Visibility: 6 or more miles (10+ km)
Ceiling: ceiling and visibility are OK
Clouds: unknown
Weather: no significant weather observed at this time

METAR text: UACC 221500Z 18003MPS CAVOK M02/M03 Q1018 R22/0///70 NOSIG RMK QFE732/0977
Conditions at: UACC (ASTANA KAZAKHSTA, KZ) observed 1500 UTC 22 March 2019
Temperature: -2.0°C (28°F)
Dewpoint: -3.0°C (27°F) [RH = 93%]
Pressure (altimeter): 30.06 inches Hg (1018.0 mb)
Winds: from the S (180 degrees) at 7 MPH (6 knots; 3.1 m/s)
Visibility: 6 or more miles (10+ km)
Ceiling: ceiling and visibility are OK
Clouds: unknown
Weather: no significant weather observed at this time

METAR text: UACC 221430Z 17002MPS CAVOK M02/M02 Q1018 R22/0///70 NOSIG RMK QFE732/0977
Conditions at: UACC (ASTANA KAZAKHSTA, KZ) observed 1430 UTC 22 March 2019
Temperature: -2.0°C (28°F)
Dewpoint: -2.0°C (28°F) [RH = 100%]
Pressure (altimeter): 30.06 inches Hg (1018.0 mb)
Winds: from the S (170 degrees) at 5 MPH (4 knots; 2.1 m/s)
Visibility: 6 or more miles (10+ km)
Ceiling: ceiling and visibility are OK
Clouds: unknown
Weather: no significant weather observed at this time

METAR text: UACC 221400Z 16002MPS CAVOK M01/M02 Q1018 R22/0///70 NOSIG RMK QFE732/0977
Conditions at: UACC (ASTANA KAZAKHSTA, KZ) observed 1400 UTC 22 March 2019
Temperature: -1.0°C (30°F)
Dewpoint: -2.0°C (28°F) [RH = 93%]
Pressure (altimeter): 30.06 inches Hg (1018.0 mb)
Winds: from the SSE (160 degrees) at 5 MPH (4 knots; 2.1 m/s)
Visibility: 6 or more miles (10+ km)
Ceiling: ceiling and visibility are OK
Clouds: unknown
Weather: no significant weather observed at this time

METAR text: UACC 221330Z 16003MPS CAVOK M01/M02 Q1018 R22/0///70 NOSIG RMK QFE732/0977
Conditions at: UACC (ASTANA KAZAKHSTA, KZ) observed 1330 UTC 22 March 2019
Temperature: -1.0°C (30°F)
Dewpoint: -2.0°C (28°F) [RH = 93%]
Pressure (altimeter): 30.06 inches Hg (1018.0 mb)
Winds: from the SSE (160 degrees) at 7 MPH (6 knots; 3.1 m/s)
Visibility: 6 or more miles (10+ km)
Ceiling: ceiling and visibility are OK
Clouds: unknown
Weather: no significant weather observed at this time

METAR text: UACC 221300Z 17003MPS CAVOK 00/M01 Q1019 R22/0///70 NOSIG RMK QFE732/0977
Conditions at: UACC (ASTANA KAZAKHSTA, KZ) observed 1300 UTC 22 March 2019
Temperature: 0.0°C (32°F)
Dewpoint: -1.0°C (30°F) [RH = 93%]
Pressure (altimeter): 30.09 inches Hg (1019.0 mb)
Winds: from the S (170 degrees) at 7 MPH (6 knots; 3.1 m/s)
Visibility: 6 or more miles (10+ km)
Ceiling: ceiling and visibility are OK
Clouds: unknown
Weather: no significant weather observed at this time

METAR text: UACC 221230Z 16004MPS 130V190 CAVOK 01/M01 Q1019 R22/0///70 NOSIG RMK QFE732/0977
Conditions at: UACC (ASTANA KAZAKHSTA, KZ) observed 1230 UTC 22 March 2019
Temperature: 1.0°C (34°F)
Dewpoint: -1.0°C (30°F) [RH = 86%]
Pressure (altimeter): 30.09 inches Hg (1019.0 mb)
Winds: from the SSE (160 degrees) at 9 MPH (8 knots; 4.1 m/s)
Visibility: 6 or more miles (10+ km)
Ceiling: ceiling and visibility are OK
Clouds: unknown
Weather: no significant weather observed at this time

METAR text: UACC 221200Z 18004MPS CAVOK 02/M01 Q1018 R22/0///70 NOSIG RMK QFE732/0977
Conditions at: UACC (ASTANA KAZAKHSTA, KZ) observed 1200 UTC 22 March 2019
Temperature: 2.0°C (36°F)
Dewpoint: -1.0°C (30°F) [RH = 80%]
Pressure (altimeter): 30.06 inches Hg (1018.0 mb)
Winds: from the S (180 degrees) at 9 MPH (8 knots; 4.1 m/s)
Visibility: 6 or more miles (10+ km)
Ceiling: ceiling and visibility are OK
Clouds: unknown
Weather: no significant weather observed at this time

METAR text: UACC 221130Z 19004MPS CAVOK 02/M01 Q1019 R22/0///70 NOSIG RMK QFE733/0977
Conditions at: UACC (ASTANA KAZAKHSTA, KZ) observed 1130 UTC 22 March 2019
Temperature: 2.0°C (36°F)
Dewpoint: -1.0°C (30°F) [RH = 80%]
Pressure (altimeter): 30.09 inches Hg (1019.0 mb)
Winds: from the S (190 degrees) at 9 MPH (8 knots; 4.1 m/s)
Visibility: 6 or more miles (10+ km)
Ceiling: ceiling and visibility are OK
Clouds: unknown
Weather: no significant weather observed at this time

Forecast for: UACC (ASTANA KAZAKHSTA, KZ)
Text: TAF UACC 231700Z 2318/2418 VRB02MPS 3100 BR BKN005 TX03/2408Z TN00/2401Z
Forecast period: 1800 to 2000 UTC 23 March 2019
Forecast type: FROM: standard forecast or significant change
Winds: variable direction winds at 5 MPH (4 knots; 2.1 m/s)
Visibility: 1.93 miles (3.11 km)
Ceiling: 500 feet AGL
Clouds: broken clouds at 500 feet AGL
Weather: BR  (mist)
Text: BECMG 2320/2322 0600 FG VV002
Forecast period: 2000 UTC 23 March 2019 to 0500 UTC 24 March 2019
Forecast type: BECOMING: Conditions expected to become as follows by 2200 UTC 23 March 2019
Winds: variable direction winds at 5 MPH (4 knots; 2.1 m/s)
Visibility: 0.37 miles (0.60 km)
Ceiling: indefinite ceiling with vertical visibility of 200 feet AGL
Clouds: obscured sky
Weather: FG  (fog)
Text: TEMPO 2320/2405 0200 DZ FG VV001
Forecast period: 2000 UTC 23 March 2019 to 0500 UTC 24 March 2019
Forecast type: TEMPORARY: The following changes expected for less than half the time period
Visibility: 0.12 miles (0.19 km)
Ceiling: indefinite ceiling with vertical visibility of 100 feet AGL
Clouds: obscured sky
Weather: DZ FG  (moderate drizzle, fog)
Text: BECMG 2405/2407 6000 SCT005 BKN020
Forecast period: 0500 to 1800 UTC 24 March 2019
Forecast type: BECOMING: Conditions expected to become as follows by 0700 UTC 24 March 2019
Winds: variable direction winds at 5 MPH (4 knots; 2.1 m/s)
Visibility: 4 miles (6 km)
Ceiling: 2000 feet AGL
Clouds: scattered clouds at 500 feet AGL
broken clouds at 2000 feet AGL
Weather: FG  (fog)
Text: TEMPO 2405/2412 3100 -RA BR BKN005 BKN020
Forecast period: 0500 to 1200 UTC 24 March 2019
Forecast type: TEMPORARY: The following changes expected for less than half the time period
Visibility: 1.93 miles (3.11 km)
Ceiling: 500 feet AGL
Clouds: broken clouds at 500 feet AGL
broken clouds at 2000 feet AGL
Weather: -RA BR  (light rain, mist)
Text: TEMPO 2412/2418 3100 BR BKN004
Forecast period: 1200 to 1800 UTC 24 March 2019
Forecast type: TEMPORARY: The following changes expected for less than half the time period
Visibility: 1.93 miles (3.11 km)
Ceiling: 400 feet AGL
Clouds: broken clouds at 400 feet AGL
Weather: BR  (mist)